createdAt,value
2018-12-03T00:00:05.452Z,21.08
2018-12-03T00:01:05.429Z,21.16
2018-12-03T00:02:05.506Z,21.09
2018-12-03T00:03:05.564Z,21.19
2018-12-03T00:04:05.572Z,21.21
2018-12-03T00:05:05.863Z,21.21
2018-12-03T00:06:05.630Z,21.06
2018-12-03T00:07:05.620Z,21.16
2018-12-03T00:08:05.703Z,21.09
2018-12-03T00:09:05.727Z,21.21
2018-12-03T00:10:05.768Z,21.22
2018-12-03T00:11:05.799Z,21.19
2018-12-03T00:12:06.077Z,21.19
2018-12-03T00:13:05.807Z,21.15
2018-12-03T00:14:05.845Z,21.18
2018-12-03T00:15:05.925Z,21.16
2018-12-03T00:16:05.961Z,21.18
2018-12-03T00:17:05.945Z,21.13
2018-12-03T00:18:05.978Z,21.16
2018-12-03T00:19:06.310Z,21.09
2018-12-03T00:20:06.093Z,21.12
2018-12-03T00:21:06.073Z,21.09
2018-12-03T00:22:06.107Z,21.06
2018-12-03T00:23:06.140Z,21.08
2018-12-03T00:24:06.220Z,21.03
2018-12-03T00:25:06.201Z,21.01
2018-12-03T00:26:06.587Z,21.09
2018-12-03T00:27:06.272Z,21.08
2018-12-03T00:28:06.301Z,21.08
2018-12-03T00:29:06.334Z,21.01
2018-12-03T00:30:06.371Z,21.06
2018-12-03T00:31:06.450Z,21.01
2018-12-03T00:32:06.483Z,21.08
2018-12-03T00:33:06.769Z,21.03
2018-12-03T00:34:06.498Z,21.06
2018-12-03T00:35:06.532Z,21.03
2018-12-03T00:36:06.609Z,21.06
2018-12-03T00:37:06.593Z,21.06
2018-12-03T00:38:06.634Z,21.05
2018-12-03T00:39:06.663Z,21.08
2018-12-03T00:40:06.991Z,21.00
2018-12-03T00:41:06.777Z,21.05
2018-12-03T00:42:06.755Z,21.12
2018-12-03T00:43:06.798Z,21.05
2018-12-03T00:44:06.823Z,21.01
2018-12-03T00:45:06.861Z,21.06
2018-12-03T00:46:06.941Z,21.03
2018-12-03T00:47:07.269Z,21.03
2018-12-03T00:48:06.961Z,21.03
2018-12-03T00:49:06.994Z,21.05
2018-12-03T00:51:07.068Z,20.98
2018-12-03T00:52:07.148Z,21.09
2018-12-03T00:53:07.171Z,21.09
2018-12-03T00:54:07.453Z,21.05
2018-12-03T00:55:07.179Z,21.01
2018-12-03T00:56:07.222Z,21.01
2018-12-03T00:57:07.301Z,21.00
2018-12-03T00:58:07.283Z,20.98
2018-12-03T00:59:07.322Z,21.01
2018-12-03T01:00:07.399Z,20.96
2018-12-03T01:01:07.727Z,21.01
2018-12-03T01:02:07.416Z,20.96
2018-12-03T01:03:07.451Z,21.01
2018-12-03T01:04:07.530Z,20.93
2018-12-03T01:05:07.507Z,20.98
2018-12-03T01:06:07.591Z,21.01
2018-12-03T01:07:07.583Z,21.01
2018-12-03T01:08:07.608Z,20.98
2018-12-03T01:09:07.708Z,21.00
2018-12-03T01:10:07.679Z,21.01
2018-12-03T01:11:07.704Z,20.96
2018-12-03T01:12:07.753Z,20.98
2018-12-03T01:13:07.770Z,20.96
2018-12-03T01:14:08.099Z,20.98
2018-12-03T01:15:07.885Z,20.94
2018-12-03T01:16:07.867Z,20.97
2018-12-03T01:17:07.902Z,20.93
2018-12-03T01:18:07.929Z,20.96
2018-12-03T01:19:07.966Z,20.97
2018-12-03T01:20:08.349Z,20.96
2018-12-03T01:21:08.076Z,21.00
2018-12-03T01:22:08.067Z,21.01
2018-12-03T01:23:08.098Z,20.97
2018-12-03T01:24:08.179Z,20.93
2018-12-03T01:25:08.211Z,20.94
2018-12-03T01:26:08.497Z,20.97
2018-12-03T01:27:08.225Z,20.90
2018-12-03T01:28:08.257Z,20.96
2018-12-03T01:29:08.339Z,20.98
2018-12-03T01:30:08.327Z,20.90
2018-12-03T01:31:08.358Z,20.87
2018-12-03T01:32:08.389Z,20.91
2018-12-03T01:33:08.718Z,20.85
2018-12-03T01:34:08.511Z,20.97
2018-12-03T01:35:08.497Z,20.96
2018-12-03T01:36:08.567Z,20.94
2018-12-03T01:37:08.550Z,20.98
2018-12-03T01:38:08.634Z,20.87
2018-12-03T01:39:08.619Z,20.91
2018-12-03T01:40:08.946Z,20.88
2018-12-03T01:41:08.730Z,20.98
2018-12-03T01:42:08.712Z,20.94
2018-12-03T01:43:08.741Z,20.97
2018-12-03T01:44:08.779Z,20.83
2018-12-03T01:45:08.866Z,20.96
2018-12-03T01:46:08.841Z,20.98
2018-12-03T01:47:09.179Z,20.91
2018-12-03T01:48:08.960Z,20.96
2018-12-03T01:49:08.938Z,20.97
2018-12-03T01:50:09.027Z,20.88
2018-12-03T01:51:09.007Z,20.96
2018-12-03T01:52:09.043Z,20.96
2018-12-03T01:53:09.073Z,21.00
2018-12-03T01:54:09.436Z,20.98
2018-12-03T01:55:09.183Z,20.88
2018-12-03T01:56:09.220Z,20.96
2018-12-03T01:57:09.195Z,20.96
2018-12-03T01:58:09.234Z,20.96
2018-12-03T01:59:09.261Z,20.97
2018-12-03T02:00:09.349Z,20.97
2018-12-03T02:01:09.681Z,20.88
2018-12-03T02:02:09.357Z,20.88
2018-12-03T02:03:09.394Z,20.97
2018-12-03T02:04:09.477Z,20.96
2018-12-03T02:05:09.509Z,20.97
2018-12-03T02:06:09.500Z,20.96
2018-12-03T02:07:09.522Z,20.88
2018-12-03T02:08:09.862Z,20.98
2018-12-03T02:09:09.596Z,20.94
2018-12-03T02:10:09.678Z,20.88
2018-12-03T02:11:09.657Z,20.91
2018-12-03T02:12:09.691Z,20.88
2018-12-03T02:13:09.717Z,20.93
2018-12-03T02:14:09.757Z,20.98
2018-12-03T02:15:10.130Z,20.97
2018-12-03T02:16:09.876Z,20.97
2018-12-03T02:17:09.899Z,20.97
2018-12-03T02:18:09.889Z,20.93
2018-12-03T02:19:09.910Z,20.85
2018-12-03T02:20:09.992Z,20.94
2018-12-03T02:21:10.024Z,20.98
2018-12-03T02:22:10.062Z,20.98
2018-12-03T02:23:10.048Z,20.94
2018-12-03T02:24:10.072Z,20.96
2018-12-03T02:25:10.160Z,20.88
2018-12-03T02:26:10.144Z,20.91
2018-12-03T02:27:10.185Z,20.90
2018-12-03T02:28:10.508Z,20.93
2018-12-03T02:29:10.235Z,20.94
2018-12-03T02:30:10.318Z,20.97
2018-12-03T02:31:10.301Z,20.97
2018-12-03T02:32:10.339Z,21.00
2018-12-03T02:33:10.367Z,20.97
2018-12-03T02:34:10.406Z,21.00
2018-12-03T02:35:10.732Z,20.94
2018-12-03T02:36:10.466Z,20.88
2018-12-03T02:37:10.498Z,20.87
2018-12-03T02:38:10.530Z,20.94
2018-12-03T02:39:10.560Z,21.00
2018-12-03T02:40:10.625Z,20.97
2018-12-03T02:41:10.981Z,20.88
2018-12-03T02:42:10.662Z,21.00
2018-12-03T02:43:10.695Z,21.00
2018-12-03T02:44:10.778Z,20.93
2018-12-03T02:45:10.755Z,20.83
2018-12-03T02:46:10.844Z,20.85
2018-12-03T02:47:11.128Z,21.01
2018-12-03T02:48:10.860Z,21.00
2018-12-03T02:49:10.889Z,21.03
2018-12-03T02:50:10.922Z,20.87
2018-12-03T02:51:11.005Z,20.94
2018-12-03T02:52:10.987Z,20.96
2018-12-03T02:53:11.319Z,20.91
2018-12-03T02:54:11.052Z,21.03
2018-12-03T02:55:11.090Z,20.87
2018-12-03T02:56:11.118Z,20.94
2018-12-03T02:57:11.204Z,20.94
2018-12-03T02:58:11.227Z,20.90
2018-12-03T02:59:11.230Z,21.01
2018-12-03T03:00:11.549Z,20.97
2018-12-03T03:01:11.273Z,20.87
2018-12-03T03:02:11.314Z,21.00
2018-12-03T03:03:11.392Z,20.93
2018-12-03T03:04:11.375Z,20.91
2018-12-03T03:05:11.413Z,20.88
2018-12-03T03:06:11.486Z,20.97
2018-12-03T03:07:11.825Z,20.98
2018-12-03T03:08:11.504Z,20.97
2018-12-03T03:09:11.539Z,20.94
2018-12-03T03:10:11.568Z,20.98
2018-12-03T03:11:11.651Z,20.88
2018-12-03T03:12:11.682Z,20.87
2018-12-03T03:13:11.664Z,20.94
2018-12-03T03:14:12.054Z,20.91
2018-12-03T03:15:11.745Z,20.90
2018-12-03T03:16:11.764Z,20.91
2018-12-03T03:17:11.848Z,20.94
2018-12-03T03:18:11.984Z,20.85
2018-12-03T03:19:11.916Z,20.93
2018-12-03T03:20:11.892Z,20.98
2018-12-03T03:21:12.236Z,20.94
2018-12-03T03:22:11.968Z,20.96
2018-12-03T03:23:12.048Z,21.05
2018-12-03T03:24:12.057Z,20.98
2018-12-03T03:25:12.109Z,20.91
2018-12-03T03:26:12.144Z,20.97
2018-12-03T03:27:12.131Z,20.98
2018-12-03T03:28:12.458Z,21.00
2018-12-03T03:29:12.239Z,20.93
2018-12-03T03:30:12.227Z,20.91
2018-12-03T03:31:12.260Z,21.03
2018-12-03T03:32:12.293Z,20.97
2018-12-03T03:33:12.371Z,20.98
2018-12-03T03:34:12.400Z,21.01
2018-12-03T03:35:12.688Z,20.98
2018-12-03T03:36:12.412Z,20.96
2018-12-03T03:37:12.444Z,21.00
2018-12-03T03:38:12.535Z,20.97
2018-12-03T03:39:12.511Z,20.88
2018-12-03T03:40:12.596Z,20.97
2018-12-03T03:41:12.639Z,21.00
2018-12-03T03:42:12.909Z,20.98
2018-12-03T03:43:12.643Z,21.00
2018-12-03T03:44:12.724Z,20.90
2018-12-03T03:45:12.705Z,20.97
2018-12-03T03:46:12.792Z,20.88
2018-12-03T03:47:12.773Z,20.93
2018-12-03T03:48:12.805Z,20.94
2018-12-03T03:49:13.185Z,20.91
2018-12-03T03:50:12.871Z,20.93
2018-12-03T03:51:12.904Z,20.88
2018-12-03T03:52:12.936Z,20.94
2018-12-03T03:53:12.965Z,20.91
2018-12-03T03:54:13.010Z,20.85
2018-12-03T03:55:13.031Z,20.91
2018-12-03T03:56:13.378Z,20.90
2018-12-03T03:57:13.100Z,20.88
2018-12-03T03:58:13.128Z,20.97
2018-12-03T03:59:13.216Z,20.97
2018-12-03T04:00:13.244Z,20.98
2018-12-03T04:01:13.277Z,20.97
2018-12-03T04:02:13.260Z,20.98
2018-12-03T04:03:13.591Z,20.85
2018-12-03T04:04:13.325Z,20.93
2018-12-03T04:05:13.406Z,20.97
2018-12-03T04:07:13.438Z,21.00
2018-12-03T04:08:13.459Z,20.98
2018-12-03T04:09:13.488Z,20.98
2018-12-03T04:10:13.958Z,20.96
2018-12-03T04:11:13.559Z,20.83
2018-12-03T04:12:13.587Z,20.87
2018-12-03T04:13:13.629Z,20.91
2018-12-03T04:14:13.673Z,20.85
2018-12-03T04:15:13.736Z,20.98
2018-12-03T04:16:13.722Z,20.87
2018-12-03T04:17:14.051Z,20.90
2018-12-03T04:18:13.784Z,20.91
2018-12-03T04:19:13.809Z,20.90
2018-12-03T04:20:13.898Z,20.85
2018-12-03T04:21:13.928Z,20.98
2018-12-03T04:22:13.908Z,20.83
2018-12-03T04:23:13.942Z,20.85
2018-12-03T04:24:14.275Z,20.87
2018-12-03T04:25:14.060Z,20.93
2018-12-03T04:26:14.093Z,20.94
2018-12-03T04:27:14.072Z,20.96
2018-12-03T04:28:14.112Z,20.96
2018-12-03T04:29:14.139Z,20.90
2018-12-03T04:30:14.532Z,20.96
2018-12-03T04:31:14.252Z,20.85
2018-12-03T04:32:14.246Z,20.88
2018-12-03T04:33:14.268Z,20.85
2018-12-03T04:34:14.300Z,20.82
2018-12-03T04:35:14.345Z,20.90
2018-12-03T04:36:14.728Z,20.87
2018-12-03T04:37:14.444Z,20.90
2018-12-03T04:38:14.438Z,20.91
2018-12-03T04:39:14.465Z,20.85
2018-12-03T04:40:14.552Z,20.93
2018-12-03T04:41:14.527Z,20.83
2018-12-03T04:42:14.860Z,20.83
2018-12-03T04:43:14.641Z,20.90
2018-12-03T04:44:14.680Z,20.88
2018-12-03T04:45:14.665Z,20.88
2018-12-03T04:46:14.696Z,20.79
2018-12-03T04:47:14.738Z,20.94
2018-12-03T04:48:14.800Z,20.93
2018-12-03T04:49:15.135Z,20.90
2018-12-03T04:50:14.873Z,20.87
2018-12-03T04:51:14.847Z,20.85
2018-12-03T04:52:14.938Z,20.87
2018-12-03T04:53:14.911Z,20.88
2018-12-03T04:54:14.997Z,20.91
2018-12-03T04:55:15.009Z,20.90
2018-12-03T04:56:15.310Z,20.79
2018-12-03T04:57:15.104Z,20.87
2018-12-03T04:58:15.081Z,20.79
2018-12-03T04:59:15.108Z,20.87
2018-12-03T05:00:15.145Z,20.76
2018-12-03T05:01:15.224Z,20.83
2018-12-03T05:02:15.208Z,20.85
2018-12-03T05:03:15.541Z,20.82
2018-12-03T05:04:15.326Z,20.83
2018-12-03T05:05:15.353Z,20.83
2018-12-03T05:06:15.339Z,20.83
2018-12-03T05:07:15.365Z,20.85
2018-12-03T05:08:15.460Z,20.75
2018-12-03T05:09:15.488Z,20.82
2018-12-03T05:10:15.777Z,20.85
2018-12-03T05:11:15.508Z,20.82
2018-12-03T05:12:15.582Z,20.85
2018-12-03T05:13:15.621Z,20.76
2018-12-03T05:14:15.601Z,20.79
2018-12-03T05:15:15.676Z,20.76
2018-12-03T05:16:15.674Z,20.82
2018-12-03T05:17:15.756Z,20.85
2018-12-03T05:18:15.776Z,20.82
2018-12-03T05:19:15.775Z,20.81
2018-12-03T05:20:15.842Z,20.82
2018-12-03T05:21:15.882Z,20.79
2018-12-03T05:22:15.914Z,20.78
2018-12-03T05:23:15.914Z,20.79
2018-12-03T05:24:15.926Z,20.76
2018-12-03T05:25:19.122Z,20.76
2018-12-03T05:26:15.982Z,20.78
2018-12-03T05:27:16.030Z,20.76
2018-12-03T05:28:16.099Z,20.79
2018-12-03T05:29:16.428Z,20.73
2018-12-03T05:30:16.165Z,20.79
2018-12-03T05:31:16.199Z,20.78
2018-12-03T05:32:16.231Z,20.68
2018-12-03T05:33:16.265Z,20.71
2018-12-03T05:34:16.297Z,20.69
2018-12-03T05:35:16.634Z,20.69
2018-12-03T05:36:16.311Z,20.72
2018-12-03T05:37:16.337Z,20.66
2018-12-03T05:38:16.378Z,20.71
2018-12-03T05:39:16.452Z,20.75
2018-12-03T05:40:16.490Z,20.61
2018-12-03T05:41:16.767Z,20.73
2018-12-03T05:42:16.504Z,20.63
2018-12-03T05:43:16.538Z,20.66
2018-12-03T05:44:16.617Z,20.72
2018-12-03T05:45:16.658Z,20.68
2018-12-03T05:46:16.647Z,20.72
2018-12-03T05:47:17.017Z,20.69
2018-12-03T05:48:16.755Z,20.58
2018-12-03T05:49:16.727Z,20.73
2018-12-03T05:50:16.818Z,20.76
2018-12-03T05:51:16.842Z,20.69
2018-12-03T05:52:16.827Z,20.68
2018-12-03T05:53:16.859Z,20.75
2018-12-03T05:54:16.894Z,20.64
2018-12-03T05:55:16.974Z,20.72
2018-12-03T05:56:16.960Z,20.60
2018-12-03T05:57:17.006Z,20.61
2018-12-03T05:58:17.023Z,20.66
2018-12-03T05:59:17.107Z,20.61
2018-12-03T06:00:17.439Z,20.61
2018-12-03T06:01:17.122Z,20.61
2018-12-03T06:02:17.199Z,20.61
2018-12-03T06:03:17.190Z,20.57
2018-12-03T06:04:17.264Z,20.63
2018-12-03T06:05:17.259Z,20.60
2018-12-03T06:06:17.275Z,20.61
2018-12-03T06:07:17.665Z,20.64
2018-12-03T06:08:17.392Z,20.61
2018-12-03T06:09:17.575Z,20.60
2018-12-03T06:10:17.409Z,20.53
2018-12-03T06:11:17.504Z,20.58
2018-12-03T06:12:17.472Z,20.57
2018-12-03T06:13:17.520Z,20.63
2018-12-03T06:14:17.838Z,20.53
2018-12-03T06:15:17.625Z,20.57
2018-12-03T06:16:17.681Z,20.57
2018-12-03T06:17:17.683Z,20.58
2018-12-03T06:18:17.661Z,20.58
2018-12-03T06:19:17.757Z,20.57
2018-12-03T06:20:17.785Z,20.60
2018-12-03T06:21:17.767Z,20.56
2018-12-03T06:22:17.850Z,20.60
2018-12-03T06:23:17.884Z,20.56
2018-12-03T06:24:17.923Z,20.60
2018-12-03T06:25:18.016Z,20.57
2018-12-03T06:26:17.923Z,20.63
2018-12-03T06:27:18.254Z,20.53
2018-12-03T06:28:17.997Z,20.60
2018-12-03T06:29:18.073Z,20.58
2018-12-03T06:30:18.083Z,20.58
2018-12-03T06:31:18.288Z,20.63
2018-12-03T06:32:18.164Z,20.57
2018-12-03T06:33:18.462Z,20.57
2018-12-03T06:34:19.075Z,20.54
2018-12-03T06:35:18.213Z,20.54
2018-12-03T06:36:18.295Z,20.57
2018-12-03T06:37:18.280Z,20.56
2018-12-03T06:38:18.362Z,20.57
2018-12-03T06:39:18.507Z,20.57
2018-12-03T06:40:18.423Z,20.58
2018-12-03T06:41:18.403Z,20.57
2018-12-03T06:42:18.490Z,20.53
2018-12-03T06:43:18.522Z,20.54
2018-12-03T06:44:18.614Z,20.46
2018-12-03T06:45:18.582Z,20.42
2018-12-03T06:46:18.617Z,20.56
2018-12-03T06:47:18.905Z,20.42
2018-12-03T06:48:18.729Z,20.44
2018-12-03T06:49:18.722Z,20.56
2018-12-03T06:50:18.691Z,20.53
2018-12-03T06:51:19.089Z,20.56
2018-12-03T06:52:18.815Z,20.46
2018-12-03T06:53:18.843Z,20.57
2018-12-03T06:54:18.869Z,20.51
2018-12-03T06:55:18.963Z,20.44
2018-12-03T06:56:18.960Z,20.57
2018-12-03T06:58:19.305Z,20.48
2018-12-03T06:59:19.083Z,20.44
2018-12-03T07:00:19.023Z,20.54
2018-12-03T07:01:19.049Z,20.56
2018-12-03T07:02:19.079Z,20.44
2018-12-03T07:03:19.244Z,20.50
2018-12-03T07:04:19.193Z,20.42
2018-12-03T07:05:19.476Z,20.41
2018-12-03T07:06:19.255Z,20.42
2018-12-03T07:07:19.343Z,20.50
2018-12-03T07:08:19.275Z,20.50
2018-12-03T07:09:19.456Z,20.42
2018-12-03T07:10:19.644Z,20.51
2018-12-03T07:11:19.416Z,20.44
2018-12-03T07:12:19.702Z,20.50
2018-12-03T07:13:19.579Z,20.46
2018-12-03T07:14:19.486Z,20.41
2018-12-03T07:15:19.547Z,20.42
2018-12-03T07:16:19.546Z,20.44
2018-12-03T07:17:19.561Z,20.46
2018-12-03T07:18:19.650Z,20.48
2018-12-03T07:19:19.933Z,20.44
2018-12-03T07:20:19.711Z,20.44
2018-12-03T07:21:19.739Z,20.48
2018-12-03T07:22:19.774Z,20.46
2018-12-03T07:23:19.754Z,20.46
2018-12-03T07:24:19.787Z,20.54
2018-12-03T07:25:19.828Z,20.48
2018-12-03T07:26:20.252Z,20.50
2018-12-03T07:27:19.939Z,20.44
2018-12-03T07:28:19.923Z,20.50
2018-12-03T07:30:20.027Z,20.51
2018-12-03T07:31:20.064Z,20.42
2018-12-03T07:32:20.064Z,20.48
2018-12-03T07:33:20.155Z,20.44
2018-12-03T07:35:20.193Z,20.48
2018-12-03T07:36:20.226Z,20.48
2018-12-03T07:37:20.241Z,20.46
2018-12-03T07:38:20.548Z,20.50
2018-12-03T07:39:20.333Z,20.42
2018-12-03T07:40:20.302Z,20.51
2018-12-03T07:41:20.390Z,20.48
2018-12-03T07:42:20.382Z,20.46
2018-12-03T07:43:20.449Z,20.46
2018-12-03T07:44:20.514Z,20.53
2018-12-03T07:45:20.524Z,20.56
2018-12-03T07:46:20.501Z,20.44
2018-12-03T07:47:20.555Z,20.42
2018-12-03T07:48:20.566Z,20.48
2018-12-03T07:49:20.645Z,20.41
2018-12-03T07:50:20.678Z,20.44
2018-12-03T07:51:20.706Z,20.41
2018-12-03T07:52:20.751Z,20.44
2018-12-03T07:53:20.789Z,20.50
2018-12-03T07:54:20.756Z,20.44
2018-12-03T07:55:20.840Z,20.46
2018-12-03T07:56:21.135Z,20.44
2018-12-03T07:57:20.902Z,20.42
2018-12-03T07:58:20.929Z,20.46
2018-12-03T08:00:20.954Z,20.44
2018-12-03T08:01:20.994Z,20.42
2018-12-03T08:02:21.059Z,20.48
2018-12-03T08:03:21.047Z,20.44
2018-12-03T08:04:21.074Z,20.42
2018-12-03T08:05:21.109Z,20.51
2018-12-03T08:06:21.195Z,20.50
2018-12-03T08:07:21.177Z,20.41
2018-12-03T08:08:21.266Z,20.42
2018-12-03T08:09:21.533Z,20.44
2018-12-03T08:10:21.316Z,20.42
2018-12-03T08:11:21.311Z,20.46
2018-12-03T08:12:21.333Z,20.51
2018-12-03T08:13:21.419Z,20.48
2018-12-03T08:14:21.502Z,20.48
2018-12-03T08:15:21.486Z,20.56
2018-12-03T08:16:21.517Z,20.60
2018-12-03T08:17:21.553Z,20.53
2018-12-03T08:18:21.531Z,20.60
2018-12-03T08:19:21.559Z,20.60
2018-12-03T08:20:21.647Z,20.58
2018-12-03T08:21:21.921Z,20.53
2018-12-03T08:22:21.664Z,20.58
2018-12-03T08:23:21.690Z,20.53
2018-12-03T08:24:21.773Z,20.58
2018-12-03T08:25:21.806Z,20.57
2018-12-03T08:26:21.839Z,20.57
2018-12-03T08:27:22.114Z,20.63
2018-12-03T08:28:21.852Z,20.58
2018-12-03T08:29:21.889Z,20.54
2018-12-03T08:30:21.920Z,20.60
2018-12-03T08:31:22.101Z,20.60
2018-12-03T08:32:21.989Z,20.58
2018-12-03T08:33:22.014Z,20.60
2018-12-03T08:34:22.107Z,20.57
2018-12-03T08:36:22.128Z,20.53
2018-12-03T08:37:22.188Z,20.57
2018-12-03T08:38:22.225Z,20.56
2018-12-03T08:39:22.208Z,20.58
2018-12-03T08:41:22.679Z,20.57
2018-12-03T08:42:22.308Z,20.58
2018-12-03T08:43:22.394Z,20.66
2018-12-03T08:44:22.458Z,20.58
2018-12-03T08:45:22.398Z,20.56
2018-12-03T08:46:22.434Z,20.57
2018-12-03T08:47:22.559Z,20.66
2018-12-03T08:48:22.495Z,20.58
2018-12-03T08:49:22.577Z,20.58
2018-12-03T08:50:22.560Z,20.60
2018-12-03T08:51:22.588Z,20.61
2018-12-03T08:52:22.625Z,20.60
2018-12-03T08:53:22.702Z,20.60
2018-12-03T08:54:22.690Z,20.58
2018-12-03T08:55:22.785Z,20.57
2018-12-03T08:56:22.800Z,20.64
2018-12-03T08:57:22.790Z,20.60
2018-12-03T08:58:22.822Z,20.60
2018-12-03T08:59:22.851Z,20.64
2018-12-03T09:01:23.221Z,20.58
2018-12-03T09:02:22.997Z,20.64
2018-12-03T09:03:22.980Z,20.60
2018-12-03T09:04:23.060Z,20.63
2018-12-03T09:05:23.092Z,20.63
2018-12-03T09:06:23.099Z,20.60
2018-12-03T09:07:23.111Z,20.72
2018-12-03T09:08:23.145Z,20.60
2018-12-03T09:09:23.225Z,20.73
2018-12-03T09:10:23.253Z,20.71
2018-12-03T09:11:23.284Z,20.60
2018-12-03T09:12:23.326Z,20.64
2018-12-03T09:13:23.302Z,20.69
2018-12-03T09:14:23.681Z,20.64
2018-12-03T09:15:23.367Z,20.64
2018-12-03T09:16:23.405Z,20.72
2018-12-03T09:17:23.436Z,20.69
2018-12-03T09:18:23.817Z,20.68
2018-12-03T09:19:23.543Z,20.69
2018-12-03T09:20:23.534Z,20.71
2018-12-03T09:21:23.558Z,20.64
2018-12-03T09:22:23.588Z,20.69
2018-12-03T09:23:23.675Z,20.68
2018-12-03T09:24:23.756Z,20.69
2018-12-03T09:25:23.743Z,20.71
2018-12-03T09:26:24.029Z,20.69
2018-12-03T09:27:23.751Z,20.69
2018-12-03T09:28:23.786Z,20.75
2018-12-03T09:29:23.869Z,20.61
2018-12-03T09:30:27.706Z,20.69
2018-12-03T09:31:23.880Z,20.63
2018-12-03T09:32:23.923Z,20.69
2018-12-03T09:33:24.251Z,20.71
2018-12-03T09:34:24.034Z,20.64
2018-12-03T09:35:24.012Z,20.69
2018-12-03T09:36:24.473Z,20.66
2018-12-03T09:37:24.195Z,20.69
2018-12-03T09:38:24.118Z,20.64
2018-12-03T09:39:24.206Z,20.63
2018-12-03T09:40:24.231Z,20.64
2018-12-03T09:41:24.267Z,20.64
2018-12-03T09:42:24.239Z,20.61
2018-12-03T09:43:24.276Z,20.61
2018-12-03T09:44:24.308Z,20.64
2018-12-03T09:45:24.390Z,20.61
2018-12-03T09:46:24.400Z,20.63
2018-12-03T09:47:24.401Z,20.61
2018-12-03T09:48:24.446Z,20.60
2018-12-03T09:49:24.477Z,20.58
2018-12-03T09:50:24.550Z,20.61
2018-12-03T09:51:24.529Z,20.64
2018-12-03T09:52:24.618Z,20.58
2018-12-03T09:53:24.648Z,20.60
2018-12-03T09:54:24.629Z,20.63
2018-12-03T09:55:24.724Z,20.56
2018-12-03T09:56:24.742Z,20.64
2018-12-03T09:57:24.720Z,20.60
2018-12-03T09:58:25.072Z,20.66
2018-12-03T09:59:24.851Z,20.60
2018-12-03T10:00:24.881Z,20.57
2018-12-03T10:01:24.906Z,20.56
2018-12-03T10:02:24.889Z,20.64
2018-12-03T10:03:24.924Z,20.57
2018-12-03T10:04:25.054Z,20.60
2018-12-03T10:05:24.982Z,20.58
2018-12-03T10:06:25.069Z,20.56
2018-12-03T10:07:25.049Z,20.56
2018-12-03T10:08:25.084Z,20.58
2018-12-03T10:09:25.123Z,20.60
2018-12-03T10:10:25.445Z,20.57
2018-12-03T10:11:25.231Z,20.57
2018-12-03T10:12:25.220Z,20.58
2018-12-03T10:13:25.248Z,20.58
2018-12-03T10:14:25.277Z,20.63
2018-12-03T10:15:25.306Z,20.58
2018-12-03T10:16:25.646Z,20.60
2018-12-03T10:17:25.416Z,20.60
2018-12-03T10:18:25.405Z,20.64
2018-12-03T10:19:25.435Z,20.66
2018-12-03T10:21:25.557Z,20.61
2018-12-03T10:22:25.593Z,20.60
2018-12-03T10:23:25.567Z,20.61
2018-12-03T10:24:25.654Z,20.60
2018-12-03T10:25:25.635Z,20.61
2018-12-03T10:26:25.668Z,20.57
2018-12-03T10:28:25.729Z,20.61
2018-12-03T10:29:26.064Z,20.60
2018-12-03T10:30:25.797Z,20.64
2018-12-03T10:31:25.840Z,20.69
2018-12-03T10:32:25.871Z,20.60
2018-12-03T10:33:25.973Z,20.75
2018-12-03T10:34:25.928Z,20.66
2018-12-03T10:36:26.043Z,20.61
2018-12-03T10:37:26.326Z,20.71
2018-12-03T10:38:26.102Z,20.60
2018-12-03T10:39:26.146Z,20.61
2018-12-03T10:40:26.115Z,20.66
2018-12-03T10:41:26.148Z,20.73
2018-12-03T10:42:26.228Z,20.63
2018-12-03T10:43:26.267Z,20.72
2018-12-03T10:44:26.597Z,20.72
2018-12-03T10:45:26.405Z,20.71
2018-12-03T10:46:26.313Z,20.71
2018-12-03T10:47:26.339Z,20.73
2018-12-03T10:48:26.382Z,20.73
2018-12-03T10:49:26.458Z,20.75
2018-12-03T10:50:26.510Z,20.72
2018-12-03T10:51:26.468Z,20.82
2018-12-03T10:52:26.506Z,20.79
2018-12-03T10:53:26.590Z,20.82
2018-12-03T10:54:26.576Z,20.87
2018-12-03T10:55:26.660Z,20.85
2018-12-03T10:56:26.731Z,20.83
2018-12-03T10:57:27.070Z,20.76
2018-12-03T10:58:26.746Z,20.81
2018-12-03T10:59:26.783Z,20.83
2018-12-03T11:00:26.765Z,20.82
2018-12-03T11:01:26.855Z,20.85
2018-12-03T11:02:26.834Z,20.83
2018-12-03T11:03:26.864Z,20.83
2018-12-03T11:04:26.900Z,20.83
2018-12-03T11:05:26.974Z,20.83
2018-12-03T11:06:27.011Z,20.85
2018-12-03T11:07:26.996Z,20.82
2018-12-03T11:08:27.030Z,20.88
2018-12-03T11:09:32.941Z,20.88
2018-12-03T11:10:27.147Z,20.91
2018-12-03T11:11:27.119Z,20.87
2018-12-03T11:12:27.207Z,20.83
2018-12-03T11:13:27.246Z,20.88
2018-12-03T11:14:27.224Z,20.94
2018-12-03T11:15:27.305Z,20.96
2018-12-03T11:16:27.587Z,20.96
2018-12-03T11:17:27.374Z,20.88
2018-12-03T11:18:27.357Z,20.88
2018-12-03T11:19:27.384Z,20.88
2018-12-03T11:20:27.468Z,20.93
2018-12-03T11:21:27.452Z,20.97
2018-12-03T11:22:27.935Z,20.81
2018-12-03T11:23:27.515Z,20.87
2018-12-03T11:25:27.582Z,20.96
2018-12-03T11:26:27.765Z,20.97
2018-12-03T11:27:27.650Z,21.01
2018-12-03T11:28:27.685Z,20.93
2018-12-03T11:29:27.807Z,20.85
2018-12-03T11:30:27.744Z,20.93
2018-12-03T11:31:27.829Z,20.98
2018-12-03T11:32:27.862Z,20.85
2018-12-03T11:33:27.886Z,21.00
2018-12-03T11:34:27.873Z,20.83
2018-12-03T11:35:28.205Z,20.88
2018-12-03T11:36:27.992Z,20.90
2018-12-03T11:37:28.031Z,21.03
2018-12-03T11:38:28.015Z,20.98
2018-12-03T11:39:28.088Z,20.90
2018-12-03T11:40:28.125Z,20.93
2018-12-03T11:41:28.103Z,20.96
2018-12-03T11:42:28.439Z,20.94
2018-12-03T11:43:28.168Z,20.94
2018-12-03T11:44:28.202Z,20.96
2018-12-03T11:45:28.336Z,20.96
2018-12-03T11:46:28.315Z,21.00
2018-12-03T11:47:28.353Z,20.97
2018-12-03T11:48:28.334Z,20.98
2018-12-03T11:49:28.506Z,21.00
2018-12-03T11:50:28.396Z,20.98
2018-12-03T11:51:28.427Z,21.00
2018-12-03T11:52:28.461Z,21.00
2018-12-03T11:53:28.562Z,21.03
2018-12-03T11:54:28.530Z,20.96
2018-12-03T11:55:28.561Z,21.03
2018-12-03T11:56:28.649Z,20.98
2018-12-03T11:57:28.680Z,21.06
2018-12-03T11:58:28.657Z,21.05
2018-12-03T11:59:28.700Z,21.00
2018-12-03T12:00:28.727Z,21.03
2018-12-03T12:01:29.053Z,21.06
2018-12-03T12:02:28.838Z,21.03
2018-12-03T12:03:28.877Z,21.05
2018-12-03T12:04:30.190Z,21.03
2018-12-03T12:05:28.944Z,21.06
2018-12-03T12:06:28.921Z,21.05
2018-12-03T12:07:28.953Z,21.08
2018-12-03T12:08:28.991Z,21.05
2018-12-03T12:09:29.074Z,21.05
2018-12-03T12:11:29.140Z,21.09
2018-12-03T12:12:29.176Z,21.05
2018-12-03T12:13:29.199Z,21.05
2018-12-03T12:14:29.238Z,21.01
2018-12-03T12:15:29.368Z,21.09
2018-12-03T12:16:29.302Z,21.00
2018-12-03T12:17:29.286Z,21.05
2018-12-03T12:18:29.364Z,21.05
2018-12-03T12:19:29.446Z,21.06
2018-12-03T12:20:29.445Z,21.09
2018-12-03T12:21:29.474Z,21.05
2018-12-03T12:22:29.461Z,21.03
2018-12-03T12:23:29.542Z,21.03
2018-12-03T12:24:29.515Z,21.08
2018-12-03T12:25:29.561Z,21.00
2018-12-03T12:26:29.623Z,21.00
2018-12-03T12:27:29.638Z,21.06
2018-12-03T12:28:29.656Z,21.05
2018-12-03T12:29:29.676Z,21.01
2018-12-03T12:30:29.713Z,21.06
2018-12-03T12:31:29.791Z,21.00
2018-12-03T12:32:29.835Z,21.00
2018-12-03T12:33:29.920Z,21.05
2018-12-03T12:34:29.845Z,20.97
2018-12-03T12:35:29.876Z,21.06
2018-12-03T12:36:29.955Z,21.05
2018-12-03T12:37:29.991Z,20.97
2018-12-03T12:38:30.022Z,21.09
2018-12-03T12:39:30.014Z,21.03
2018-12-03T12:40:30.041Z,20.98
2018-12-03T12:41:30.131Z,21.00
2018-12-03T12:42:31.951Z,20.98
2018-12-03T12:43:30.487Z,20.98
2018-12-03T12:44:30.177Z,20.98
2018-12-03T12:45:30.195Z,21.03
2018-12-03T12:46:30.238Z,20.98
2018-12-03T12:47:30.315Z,20.97
2018-12-03T12:48:30.300Z,21.03
2018-12-03T12:49:30.331Z,21.03
2018-12-03T12:50:30.376Z,21.01
2018-12-03T12:51:30.398Z,21.01
2018-12-03T12:52:30.585Z,21.00
2018-12-03T12:53:30.507Z,20.97
2018-12-03T12:54:30.501Z,21.01
2018-12-03T12:55:30.824Z,20.97
2018-12-03T12:56:30.564Z,21.00
2018-12-03T12:57:30.599Z,20.98
2018-12-03T12:58:30.679Z,21.03
2018-12-03T12:59:30.660Z,21.01
2018-12-03T13:00:30.754Z,21.06
2018-12-03T13:01:30.878Z,21.03
2018-12-03T13:02:31.069Z,21.05
2018-12-03T13:03:30.789Z,21.05
2018-12-03T13:04:30.832Z,21.03
2018-12-03T13:05:30.934Z,21.01
2018-12-03T13:06:30.893Z,21.05